sensor_id;sensor_type;location;lat;lon;timestamp;P1;durP1;ratioP1;P2;durP2;ratioP2
14381;SDS011;7275;50.328;8.720;2023-11-19T00:02:15;9.90;;;9.00;;
14381;SDS011;7275;50.328;8.720;2023-11-19T00:04:45;9.73;;;8.83;;
14381;SDS011;7275;50.328;8.720;2023-11-19T00:07:12;10.20;;;9.20;;
14381;SDS011;7275;50.328;8.720;2023-11-19T00:09:40;9.10;;;8.27;;
14381;SDS011;7275;50.328;8.720;2023-11-19T00:12:11;9.57;;;8.67;;
14381;SDS011;7275;50.328;8.720;2023-11-19T00:14:39;8.97;;;8.17;;
14381;SDS011;7275;50.328;8.720;2023-11-19T00:17:07;8.63;;;7.83;;
14381;SDS011;7275;50.328;8.720;2023-11-19T00:19:34;8.30;;;7.50;;
14381;SDS011;7275;50.328;8.720;2023-11-19T00:22:02;8.07;;;7.27;;
14381;SDS011;7275;50.328;8.720;2023-11-19T00:24:30;8.20;;;7.40;;
14381;SDS011;7275;50.328;8.720;2023-11-19T00:26:58;7.70;;;7.00;;
14381;SDS011;7275;50.328;8.720;2023-11-19T00:29:27;8.40;;;7.70;;
14381;SDS011;7275;50.328;8.720;2023-11-19T00:31:54;8.30;;;7.50;;
14381;SDS011;7275;50.328;8.720;2023-11-19T00:34:22;8.10;;;7.33;;
14381;SDS011;7275;50.328;8.720;2023-11-19T00:36:49;9.30;;;8.50;;
14381;SDS011;7275;50.328;8.720;2023-11-19T00:39:17;8.23;;;7.53;;
14381;SDS011;7275;50.328;8.720;2023-11-19T00:41:47;8.83;;;8.00;;
14381;SDS011;7275;50.328;8.720;2023-11-19T00:44:14;8.10;;;7.30;;
14381;SDS011;7275;50.328;8.720;2023-11-19T00:46:43;8.80;;;8.00;;
14381;SDS011;7275;50.328;8.720;2023-11-19T00:49:11;8.50;;;7.70;;
14381;SDS011;7275;50.328;8.720;2023-11-19T00:51:39;8.77;;;7.97;;
14381;SDS011;7275;50.328;8.720;2023-11-19T00:54:06;8.70;;;7.90;;
14381;SDS011;7275;50.328;8.720;2023-11-19T00:56:34;8.60;;;7.70;;
14381;SDS011;7275;50.328;8.720;2023-11-19T00:59:01;8.20;;;7.40;;
14381;SDS011;7275;50.328;8.720;2023-11-19T01:01:30;8.47;;;7.67;;
14381;SDS011;7275;50.328;8.720;2023-11-19T01:03:59;7.73;;;6.93;;
14381;SDS011;7275;50.328;8.720;2023-11-19T01:06:27;7.63;;;6.93;;
14381;SDS011;7275;50.328;8.720;2023-11-19T01:08:55;8.33;;;7.50;;
14381;SDS011;7275;50.328;8.720;2023-11-19T01:11:23;8.57;;;7.83;;
14381;SDS011;7275;50.328;8.720;2023-11-19T01:13:51;7.93;;;7.13;;
14381;SDS011;7275;50.328;8.720;2023-11-19T01:16:19;7.57;;;6.93;;
14381;SDS011;7275;50.328;8.720;2023-11-19T01:18:48;7.50;;;6.80;;
14381;SDS011;7275;50.328;8.720;2023-11-19T01:21:17;7.37;;;6.67;;
14381;SDS011;7275;50.328;8.720;2023-11-19T01:23:45;7.50;;;6.70;;
14381;SDS011;7275;50.328;8.720;2023-11-19T01:26:13;6.80;;;6.20;;
14381;SDS011;7275;50.328;8.720;2023-11-19T01:28:40;6.60;;;6.00;;
14381;SDS011;7275;50.328;8.720;2023-11-19T01:31:14;8.63;;;5.47;;
14381;SDS011;7275;50.328;8.720;2023-11-19T01:33:42;6.33;;;5.77;;
14381;SDS011;7275;50.328;8.720;2023-11-19T01:36:12;5.67;;;5.17;;
14381;SDS011;7275;50.328;8.720;2023-11-19T01:38:42;6.97;;;5.70;;
14381;SDS011;7275;50.328;8.720;2023-11-19T01:41:09;5.93;;;5.33;;
14381;SDS011;7275;50.328;8.720;2023-11-19T01:43:37;6.23;;;5.63;;
14381;SDS011;7275;50.328;8.720;2023-11-19T01:46:07;6.53;;;6.00;;
14381;SDS011;7275;50.328;8.720;2023-11-19T01:48:38;7.23;;;6.50;;
14381;SDS011;7275;50.328;8.720;2023-11-19T01:51:11;6.77;;;6.17;;
14381;SDS011;7275;50.328;8.720;2023-11-19T01:53:44;6.57;;;5.97;;
14381;SDS011;7275;50.328;8.720;2023-11-19T01:56:12;6.80;;;6.20;;
14381;SDS011;7275;50.328;8.720;2023-11-19T01:58:42;7.17;;;6.47;;
14381;SDS011;7275;50.328;8.720;2023-11-19T02:01:12;7.53;;;6.93;;
14381;SDS011;7275;50.328;8.720;2023-11-19T02:03:40;8.90;;;7.70;;
14381;SDS011;7275;50.328;8.720;2023-11-19T02:06:08;8.20;;;7.47;;
14381;SDS011;7275;50.328;8.720;2023-11-19T02:08:37;8.17;;;7.37;;
14381;SDS011;7275;50.328;8.720;2023-11-19T02:11:07;8.90;;;8.10;;
14381;SDS011;7275;50.328;8.720;2023-11-19T02:13:35;8.70;;;7.90;;
14381;SDS011;7275;50.328;8.720;2023-11-19T02:16:05;9.17;;;8.30;;
14381;SDS011;7275;50.328;8.720;2023-11-19T02:18:35;9.53;;;8.63;;
14381;SDS011;7275;50.328;8.720;2023-11-19T02:21:02;10.33;;;9.43;;
14381;SDS011;7275;50.328;8.720;2023-11-19T02:23:31;10.13;;;9.23;;
14381;SDS011;7275;50.328;8.720;2023-11-19T02:26:02;10.87;;;9.00;;
14381;SDS011;7275;50.328;8.720;2023-11-19T02:28:36;10.93;;;9.93;;
14381;SDS011;7275;50.328;8.720;2023-11-19T02:31:04;11.13;;;9.93;;
14381;SDS011;7275;50.328;8.720;2023-11-19T02:33:35;11.37;;;10.17;;
14381;SDS011;7275;50.328;8.720;2023-11-19T02:36:03;11.57;;;10.50;;
14381;SDS011;7275;50.328;8.720;2023-11-19T02:38:33;10.60;;;9.60;;
14381;SDS011;7275;50.328;8.720;2023-11-19T02:41:02;10.50;;;9.53;;
14381;SDS011;7275;50.328;8.720;2023-11-19T02:43:32;10.07;;;9.10;;
14381;SDS011;7275;50.328;8.720;2023-11-19T02:46:01;11.57;;;10.47;;
14381;SDS011;7275;50.328;8.720;2023-11-19T02:48:41;10.47;;;9.50;;
14381;SDS011;7275;50.328;8.720;2023-11-19T02:51:09;9.90;;;9.00;;
14381;SDS011;7275;50.328;8.720;2023-11-19T02:53:37;9.90;;;8.93;;
14381;SDS011;7275;50.328;8.720;2023-11-19T02:56:06;10.57;;;9.50;;
14381;SDS011;7275;50.328;8.720;2023-11-19T02:58:42;10.90;;;9.90;;
14381;SDS011;7275;50.328;8.720;2023-11-19T03:01:12;10.57;;;9.67;;
14381;SDS011;7275;50.328;8.720;2023-11-19T03:03:49;10.97;;;9.90;;
14381;SDS011;7275;50.328;8.720;2023-11-19T03:06:21;10.80;;;9.70;;
14381;SDS011;7275;50.328;8.720;2023-11-19T03:08:48;9.87;;;8.97;;
14381;SDS011;7275;50.328;8.720;2023-11-19T03:11:16;9.20;;;8.33;;
14381;SDS011;7275;50.328;8.720;2023-11-19T03:13:44;8.00;;;7.30;;
14381;SDS011;7275;50.328;8.720;2023-11-19T03:16:14;7.43;;;6.73;;
14381;SDS011;7275;50.328;8.720;2023-11-19T03:18:43;7.17;;;6.53;;
14381;SDS011;7275;50.328;8.720;2023-11-19T03:21:10;6.93;;;6.30;;
14381;SDS011;7275;50.328;8.720;2023-11-19T03:23:38;6.30;;;5.70;;
14381;SDS011;7275;50.328;8.720;2023-11-19T03:26:06;6.83;;;6.17;;
14381;SDS011;7275;50.328;8.720;2023-11-19T03:28:35;5.90;;;5.40;;
14381;SDS011;7275;50.328;8.720;2023-11-19T03:31:04;5.77;;;5.27;;
14381;SDS011;7275;50.328;8.720;2023-11-19T03:33:35;5.93;;;5.43;;
14381;SDS011;7275;50.328;8.720;2023-11-19T03:36:04;6.07;;;5.57;;
14381;SDS011;7275;50.328;8.720;2023-11-19T03:38:32;6.53;;;5.93;;
14381;SDS011;7275;50.328;8.720;2023-11-19T03:40:59;7.53;;;6.70;;
14381;SDS011;7275;50.328;8.720;2023-11-19T03:43:27;6.70;;;6.10;;
14381;SDS011;7275;50.328;8.720;2023-11-19T03:45:55;6.87;;;6.27;;
14381;SDS011;7275;50.328;8.720;2023-11-19T03:48:22;6.80;;;6.20;;
14381;SDS011;7275;50.328;8.720;2023-11-19T03:50:51;8.37;;;6.00;;
14381;SDS011;7275;50.328;8.720;2023-11-19T03:53:18;6.50;;;5.90;;
14381;SDS011;7275;50.328;8.720;2023-11-19T03:55:46;7.47;;;6.77;;
14381;SDS011;7275;50.328;8.720;2023-11-19T03:58:13;7.57;;;6.87;;
14381;SDS011;7275;50.328;8.720;2023-11-19T04:00:41;7.77;;;7.07;;
14381;SDS011;7275;50.328;8.720;2023-11-19T04:03:08;7.17;;;6.57;;
14381;SDS011;7275;50.328;8.720;2023-11-19T04:05:36;7.57;;;6.77;;
14381;SDS011;7275;50.328;8.720;2023-11-19T04:08:05;6.83;;;6.23;;
14381;SDS011;7275;50.328;8.720;2023-11-19T04:10:32;6.73;;;6.13;;
14381;SDS011;7275;50.328;8.720;2023-11-19T04:13:00;6.57;;;5.90;;
14381;SDS011;7275;50.328;8.720;2023-11-19T04:15:28;6.10;;;5.60;;
14381;SDS011;7275;50.328;8.720;2023-11-19T04:17:55;6.43;;;5.83;;
14381;SDS011;7275;50.328;8.720;2023-11-19T04:20:23;5.93;;;5.43;;
14381;SDS011;7275;50.328;8.720;2023-11-19T04:22:50;5.00;;;4.60;;
14381;SDS011;7275;50.328;8.720;2023-11-19T04:25:19;4.57;;;4.17;;
14381;SDS011;7275;50.328;8.720;2023-11-19T04:27:47;4.80;;;4.30;;
14381;SDS011;7275;50.328;8.720;2023-11-19T04:30:15;4.50;;;4.10;;
14381;SDS011;7275;50.328;8.720;2023-11-19T04:32:42;4.07;;;3.77;;
14381;SDS011;7275;50.328;8.720;2023-11-19T04:35:10;5.37;;;4.40;;
14381;SDS011;7275;50.328;8.720;2023-11-19T04:37:38;4.70;;;4.30;;
14381;SDS011;7275;50.328;8.720;2023-11-19T04:40:06;4.60;;;4.20;;
14381;SDS011;7275;50.328;8.720;2023-11-19T04:42:36;6.00;;;5.50;;
14381;SDS011;7275;50.328;8.720;2023-11-19T04:45:06;5.20;;;4.80;;
14381;SDS011;7275;50.328;8.720;2023-11-19T04:47:36;5.40;;;5.00;;
14381;SDS011;7275;50.328;8.720;2023-11-19T04:50:04;5.60;;;5.13;;
14381;SDS011;7275;50.328;8.720;2023-11-19T04:52:32;6.20;;;5.60;;
14381;SDS011;7275;50.328;8.720;2023-11-19T04:55:00;6.27;;;5.77;;
14381;SDS011;7275;50.328;8.720;2023-11-19T04:57:28;6.27;;;5.77;;
14381;SDS011;7275;50.328;8.720;2023-11-19T04:59:59;6.77;;;6.07;;
14381;SDS011;7275;50.328;8.720;2023-11-19T05:02:27;6.73;;;6.13;;
14381;SDS011;7275;50.328;8.720;2023-11-19T05:04:54;6.97;;;6.37;;
14381;SDS011;7275;50.328;8.720;2023-11-19T05:07:22;6.37;;;5.87;;
14381;SDS011;7275;50.328;8.720;2023-11-19T05:09:49;6.53;;;6.03;;
14381;SDS011;7275;50.328;8.720;2023-11-19T05:12:17;6.77;;;6.20;;
14381;SDS011;7275;50.328;8.720;2023-11-19T05:14:44;6.93;;;6.33;;
14381;SDS011;7275;50.328;8.720;2023-11-19T05:17:17;6.50;;;6.00;;
14381;SDS011;7275;50.328;8.720;2023-11-19T05:19:46;5.47;;;5.00;;
14381;SDS011;7275;50.328;8.720;2023-11-19T05:22:14;6.10;;;5.60;;
14381;SDS011;7275;50.328;8.720;2023-11-19T05:24:42;4.90;;;4.50;;
14381;SDS011;7275;50.328;8.720;2023-11-19T05:27:09;4.90;;;4.50;;
14381;SDS011;7275;50.328;8.720;2023-11-19T05:29:37;5.10;;;4.47;;
14381;SDS011;7275;50.328;8.720;2023-11-19T05:32:05;4.70;;;4.30;;
14381;SDS011;7275;50.328;8.720;2023-11-19T05:34:34;4.80;;;4.37;;
14381;SDS011;7275;50.328;8.720;2023-11-19T05:37:02;4.93;;;4.53;;
14381;SDS011;7275;50.328;8.720;2023-11-19T05:39:32;4.63;;;4.20;;
14381;SDS011;7275;50.328;8.720;2023-11-19T05:41:59;5.93;;;4.40;;
14381;SDS011;7275;50.328;8.720;2023-11-19T05:44:27;3.80;;;3.50;;
14381;SDS011;7275;50.328;8.720;2023-11-19T05:46:54;3.90;;;3.60;;
14381;SDS011;7275;50.328;8.720;2023-11-19T05:49:22;3.87;;;3.57;;
14381;SDS011;7275;50.328;8.720;2023-11-19T05:51:51;3.60;;;3.30;;
14381;SDS011;7275;50.328;8.720;2023-11-19T05:54:21;3.70;;;3.40;;
14381;SDS011;7275;50.328;8.720;2023-11-19T05:56:49;3.60;;;3.33;;
14381;SDS011;7275;50.328;8.720;2023-11-19T05:59:20;3.97;;;3.67;;
14381;SDS011;7275;50.328;8.720;2023-11-19T06:01:49;4.37;;;3.97;;
14381;SDS011;7275;50.328;8.720;2023-11-19T06:04:16;4.20;;;3.90;;
14381;SDS011;7275;50.328;8.720;2023-11-19T06:06:44;3.97;;;3.67;;
14381;SDS011;7275;50.328;8.720;2023-11-19T06:09:13;3.90;;;3.60;;
14381;SDS011;7275;50.328;8.720;2023-11-19T06:11:40;4.30;;;4.00;;
14381;SDS011;7275;50.328;8.720;2023-11-19T06:14:08;4.53;;;4.20;;
14381;SDS011;7275;50.328;8.720;2023-11-19T06:16:35;5.00;;;4.60;;
14381;SDS011;7275;50.328;8.720;2023-11-19T06:19:05;5.13;;;4.73;;
14381;SDS011;7275;50.328;8.720;2023-11-19T06:21:33;5.60;;;5.10;;
14381;SDS011;7275;50.328;8.720;2023-11-19T06:24:03;5.73;;;5.23;;
14381;SDS011;7275;50.328;8.720;2023-11-19T06:26:32;5.70;;;5.20;;
14381;SDS011;7275;50.328;8.720;2023-11-19T06:29:00;6.43;;;5.93;;
14381;SDS011;7275;50.328;8.720;2023-11-19T06:31:27;6.17;;;5.67;;
14381;SDS011;7275;50.328;8.720;2023-11-19T06:33:55;6.03;;;5.53;;
14381;SDS011;7275;50.328;8.720;2023-11-19T06:36:23;6.20;;;5.70;;
14381;SDS011;7275;50.328;8.720;2023-11-19T06:38:50;5.37;;;4.87;;
14381;SDS011;7275;50.328;8.720;2023-11-19T06:41:18;4.90;;;4.50;;
14381;SDS011;7275;50.328;8.720;2023-11-19T06:43:47;4.90;;;4.50;;
14381;SDS011;7275;50.328;8.720;2023-11-19T06:46:15;5.27;;;4.77;;
14381;SDS011;7275;50.328;8.720;2023-11-19T06:48:43;5.70;;;5.20;;
14381;SDS011;7275;50.328;8.720;2023-11-19T06:51:11;6.13;;;5.30;;
14381;SDS011;7275;50.328;8.720;2023-11-19T06:53:38;5.80;;;5.30;;
14381;SDS011;7275;50.328;8.720;2023-11-19T06:56:16;6.17;;;5.67;;
14381;SDS011;7275;50.328;8.720;2023-11-19T06:58:46;5.80;;;5.10;;
14381;SDS011;7275;50.328;8.720;2023-11-19T07:01:14;5.40;;;4.90;;
14381;SDS011;7275;50.328;8.720;2023-11-19T07:03:42;5.40;;;4.97;;
14381;SDS011;7275;50.328;8.720;2023-11-19T07:06:10;5.87;;;5.27;;
14381;SDS011;7275;50.328;8.720;2023-11-19T07:08:39;6.33;;;5.60;;
14381;SDS011;7275;50.328;8.720;2023-11-19T07:11:08;5.83;;;5.33;;
14381;SDS011;7275;50.328;8.720;2023-11-19T07:13:36;5.73;;;5.23;;
14381;SDS011;7275;50.328;8.720;2023-11-19T07:16:06;6.03;;;5.43;;
14381;SDS011;7275;50.328;8.720;2023-11-19T07:18:36;6.37;;;5.77;;
14381;SDS011;7275;50.328;8.720;2023-11-19T07:21:04;6.90;;;5.90;;
14381;SDS011;7275;50.328;8.720;2023-11-19T07:23:32;6.47;;;5.87;;
14381;SDS011;7275;50.328;8.720;2023-11-19T07:26:00;6.97;;;5.90;;
14381;SDS011;7275;50.328;8.720;2023-11-19T07:28:28;6.90;;;6.30;;
14381;SDS011;7275;50.328;8.720;2023-11-19T07:30:55;6.47;;;5.80;;
14381;SDS011;7275;50.328;8.720;2023-11-19T07:33:24;5.80;;;5.30;;
14381;SDS011;7275;50.328;8.720;2023-11-19T07:35:52;6.10;;;5.60;;
14381;SDS011;7275;50.328;8.720;2023-11-19T07:38:19;5.50;;;5.00;;
14381;SDS011;7275;50.328;8.720;2023-11-19T07:40:47;6.70;;;4.57;;
14381;SDS011;7275;50.328;8.720;2023-11-19T07:43:18;4.70;;;4.30;;
14381;SDS011;7275;50.328;8.720;2023-11-19T07:45:45;5.97;;;4.67;;
14381;SDS011;7275;50.328;8.720;2023-11-19T07:48:13;5.03;;;4.60;;
14381;SDS011;7275;50.328;8.720;2023-11-19T07:50:43;5.70;;;4.20;;
14381;SDS011;7275;50.328;8.720;2023-11-19T07:53:10;5.00;;;4.60;;
14381;SDS011;7275;50.328;8.720;2023-11-19T07:55:38;4.83;;;4.33;;
14381;SDS011;7275;50.328;8.720;2023-11-19T07:58:08;4.77;;;4.37;;
14381;SDS011;7275;50.328;8.720;2023-11-19T08:00:35;4.27;;;3.87;;
14381;SDS011;7275;50.328;8.720;2023-11-19T08:03:03;4.70;;;4.30;;
14381;SDS011;7275;50.328;8.720;2023-11-19T08:05:31;4.50;;;4.10;;
14381;SDS011;7275;50.328;8.720;2023-11-19T08:08:00;4.33;;;3.93;;
14381;SDS011;7275;50.328;8.720;2023-11-19T08:10:28;4.40;;;3.70;;
14381;SDS011;7275;50.328;8.720;2023-11-19T08:12:55;3.17;;;2.90;;
14381;SDS011;7275;50.328;8.720;2023-11-19T08:15:23;3.27;;;2.70;;
14381;SDS011;7275;50.328;8.720;2023-11-19T08:17:53;2.90;;;2.60;;
14381;SDS011;7275;50.328;8.720;2023-11-19T08:20:21;2.70;;;2.50;;
14381;SDS011;7275;50.328;8.720;2023-11-19T08:22:49;2.90;;;2.70;;
14381;SDS011;7275;50.328;8.720;2023-11-19T08:25:18;3.10;;;2.57;;
14381;SDS011;7275;50.328;8.720;2023-11-19T08:27:46;3.50;;;2.87;;
14381;SDS011;7275;50.328;8.720;2023-11-19T08:30:13;3.87;;;3.03;;
14381;SDS011;7275;50.328;8.720;2023-11-19T08:32:41;3.63;;;2.87;;
14381;SDS011;7275;50.328;8.720;2023-11-19T08:35:09;4.07;;;2.97;;
14381;SDS011;7275;50.328;8.720;2023-11-19T08:37:36;3.33;;;3.03;;
14381;SDS011;7275;50.328;8.720;2023-11-19T08:40:05;3.27;;;2.60;;
14381;SDS011;7275;50.328;8.720;2023-11-19T08:42:35;3.60;;;2.60;;
14381;SDS011;7275;50.328;8.720;2023-11-19T08:45:05;2.87;;;2.60;;
14381;SDS011;7275;50.328;8.720;2023-11-19T08:47:33;4.07;;;2.60;;
14381;SDS011;7275;50.328;8.720;2023-11-19T08:50:01;5.73;;;2.40;;
14381;SDS011;7275;50.328;8.720;2023-11-19T08:52:30;4.10;;;2.73;;
14381;SDS011;7275;50.328;8.720;2023-11-19T08:55:00;2.97;;;2.40;;
14381;SDS011;7275;50.328;8.720;2023-11-19T08:57:28;3.07;;;1.83;;
14381;SDS011;7275;50.328;8.720;2023-11-19T08:59:57;2.73;;;1.70;;
14381;SDS011;7275;50.328;8.720;2023-11-19T09:02:24;4.57;;;1.70;;
14381;SDS011;7275;50.328;8.720;2023-11-19T09:04:52;4.97;;;1.90;;
14381;SDS011;7275;50.328;8.720;2023-11-19T09:07:20;4.63;;;1.80;;
14381;SDS011;7275;50.328;8.720;2023-11-19T09:09:48;4.25;;;1.70;;
14381;SDS011;7275;50.328;8.720;2023-11-19T09:12:15;4.72;;;1.77;;
14381;SDS011;7275;50.328;8.720;2023-11-19T09:14:43;6.18;;;1.85;;
14381;SDS011;7275;50.328;8.720;2023-11-19T09:17:13;6.25;;;1.95;;
14381;SDS011;7275;50.328;8.720;2023-11-19T09:19:40;4.47;;;1.60;;
14381;SDS011;7275;50.328;8.720;2023-11-19T09:22:08;4.18;;;1.55;;
14381;SDS011;7275;50.328;8.720;2023-11-19T09:24:35;3.95;;;1.50;;
14381;SDS011;7275;50.328;8.720;2023-11-19T09:27:03;6.22;;;2.00;;
14381;SDS011;7275;50.328;8.720;2023-11-19T09:29:31;5.00;;;1.60;;
14381;SDS011;7275;50.328;8.720;2023-11-19T09:31:59;5.40;;;1.80;;
14381;SDS011;7275;50.328;8.720;2023-11-19T09:34:28;4.78;;;2.22;;
14381;SDS011;7275;50.328;8.720;2023-11-19T09:36:56;7.95;;;4.05;;
14381;SDS011;7275;50.328;8.720;2023-11-19T09:39:24;5.30;;;1.98;;
14381;SDS011;7275;50.328;8.720;2023-11-19T09:41:51;5.90;;;2.13;;
14381;SDS011;7275;50.328;8.720;2023-11-19T09:44:19;6.25;;;2.00;;
14381;SDS011;7275;50.328;8.720;2023-11-19T09:46:47;5.93;;;1.70;;
14381;SDS011;7275;50.328;8.720;2023-11-19T09:49:15;5.00;;;1.80;;
14381;SDS011;7275;50.328;8.720;2023-11-19T09:51:54;4.93;;;1.80;;
14381;SDS011;7275;50.328;8.720;2023-11-19T09:54:21;5.65;;;1.98;;
14381;SDS011;7275;50.328;8.720;2023-11-19T09:56:49;4.53;;;1.95;;
14381;SDS011;7275;50.328;8.720;2023-11-19T09:59:17;6.18;;;1.98;;
14381;SDS011;7275;50.328;8.720;2023-11-19T10:01:45;5.07;;;2.00;;
14381;SDS011;7275;50.328;8.720;2023-11-19T10:04:13;5.88;;;2.10;;
14381;SDS011;7275;50.328;8.720;2023-11-19T10:06:43;6.20;;;2.10;;
14381;SDS011;7275;50.328;8.720;2023-11-19T10:09:12;6.38;;;2.15;;
14381;SDS011;7275;50.328;8.720;2023-11-19T10:11:41;6.38;;;2.42;;
14381;SDS011;7275;50.328;8.720;2023-11-19T10:14:09;6.45;;;2.25;;
14381;SDS011;7275;50.328;8.720;2023-11-19T10:16:36;7.18;;;2.55;;
14381;SDS011;7275;50.328;8.720;2023-11-19T10:19:05;5.32;;;2.22;;
14381;SDS011;7275;50.328;8.720;2023-11-19T10:21:33;7.28;;;2.20;;
14381;SDS011;7275;50.328;8.720;2023-11-19T10:24:00;5.55;;;1.80;;
14381;SDS011;7275;50.328;8.720;2023-11-19T10:26:29;5.43;;;2.08;;
14381;SDS011;7275;50.328;8.720;2023-11-19T10:28:57;6.85;;;2.25;;
14381;SDS011;7275;50.328;8.720;2023-11-19T10:31:25;5.60;;;2.17;;
14381;SDS011;7275;50.328;8.720;2023-11-19T10:33:53;7.00;;;2.40;;
14381;SDS011;7275;50.328;8.720;2023-11-19T10:36:21;7.82;;;2.08;;
14381;SDS011;7275;50.328;8.720;2023-11-19T10:38:53;7.25;;;2.20;;
14381;SDS011;7275;50.328;8.720;2023-11-19T10:41:27;6.38;;;2.15;;
14381;SDS011;7275;50.328;8.720;2023-11-19T10:43:56;6.13;;;2.08;;
14381;SDS011;7275;50.328;8.720;2023-11-19T10:46:35;5.75;;;1.90;;
14381;SDS011;7275;50.328;8.720;2023-11-19T10:49:04;7.28;;;2.53;;
14381;SDS011;7275;50.328;8.720;2023-11-19T10:51:32;6.03;;;2.20;;
14381;SDS011;7275;50.328;8.720;2023-11-19T10:54:01;6.93;;;2.13;;
14381;SDS011;7275;50.328;8.720;2023-11-19T10:56:31;7.22;;;2.20;;
14381;SDS011;7275;50.328;8.720;2023-11-19T10:59:01;5.82;;;2.10;;
14381;SDS011;7275;50.328;8.720;2023-11-19T11:01:32;7.70;;;2.35;;
14381;SDS011;7275;50.328;8.720;2023-11-19T11:04:07;6.03;;;2.20;;
14381;SDS011;7275;50.328;8.720;2023-11-19T11:06:41;9.50;;;2.83;;
14381;SDS011;7275;50.328;8.720;2023-11-19T11:09:10;7.63;;;2.60;;
14381;SDS011;7275;50.328;8.720;2023-11-19T11:11:39;5.90;;;2.35;;
14381;SDS011;7275;50.328;8.720;2023-11-19T11:14:11;6.20;;;2.58;;
14381;SDS011;7275;50.328;8.720;2023-11-19T11:16:40;6.80;;;2.33;;
14381;SDS011;7275;50.328;8.720;2023-11-19T11:19:10;6.40;;;2.22;;
14381;SDS011;7275;50.328;8.720;2023-11-19T11:21:38;7.50;;;2.65;;
14381;SDS011;7275;50.328;8.720;2023-11-19T11:27:20;6.70;;;2.40;;
14381;SDS011;7275;50.328;8.720;2023-11-19T11:30:06;5.35;;;2.17;;
14381;SDS011;7275;50.328;8.720;2023-11-19T11:32:50;7.10;;;2.60;;
14381;SDS011;7275;50.328;8.720;2023-11-19T11:35:29;8.00;;;2.60;;
14381;SDS011;7275;50.328;8.720;2023-11-19T11:38:06;8.80;;;2.42;;
14381;SDS011;7275;50.328;8.720;2023-11-19T11:40:35;6.07;;;2.25;;
14381;SDS011;7275;50.328;8.720;2023-11-19T11:43:02;6.57;;;2.35;;
14381;SDS011;7275;50.328;8.720;2023-11-19T11:45:39;5.18;;;2.25;;
14381;SDS011;7275;50.328;8.720;2023-11-19T11:48:10;5.80;;;2.40;;
14381;SDS011;7275;50.328;8.720;2023-11-19T11:50:51;5.70;;;2.50;;
14381;SDS011;7275;50.328;8.720;2023-11-19T11:53:21;7.80;;;2.58;;
14381;SDS011;7275;50.328;8.720;2023-11-19T11:55:53;8.32;;;2.97;;
14381;SDS011;7275;50.328;8.720;2023-11-19T11:58:26;6.38;;;2.60;;
14381;SDS011;7275;50.328;8.720;2023-11-19T12:01:00;5.47;;;2.17;;
14381;SDS011;7275;50.328;8.720;2023-11-19T12:03:32;7.07;;;2.20;;
14381;SDS011;7275;50.328;8.720;2023-11-19T12:06:00;8.13;;;2.55;;
14381;SDS011;7275;50.328;8.720;2023-11-19T12:08:29;8.15;;;2.83;;
14381;SDS011;7275;50.328;8.720;2023-11-19T12:10:57;8.43;;;2.63;;
14381;SDS011;7275;50.328;8.720;2023-11-19T12:13:29;6.45;;;2.08;;
14381;SDS011;7275;50.328;8.720;2023-11-19T12:16:14;6.13;;;2.60;;
14381;SDS011;7275;50.328;8.720;2023-11-19T12:18:42;5.63;;;2.47;;
14381;SDS011;7275;50.328;8.720;2023-11-19T12:21:10;7.05;;;2.50;;
14381;SDS011;7275;50.328;8.720;2023-11-19T12:23:44;9.02;;;2.83;;
14381;SDS011;7275;50.328;8.720;2023-11-19T12:26:33;8.25;;;2.63;;
14381;SDS011;7275;50.328;8.720;2023-11-19T12:29:02;5.82;;;2.10;;
14381;SDS011;7275;50.328;8.720;2023-11-19T12:31:36;7.07;;;2.17;;
14381;SDS011;7275;50.328;8.720;2023-11-19T12:34:06;6.10;;;2.50;;
14381;SDS011;7275;50.328;8.720;2023-11-19T12:36:38;5.47;;;2.08;;
14381;SDS011;7275;50.328;8.720;2023-11-19T12:39:08;5.90;;;2.40;;
14381;SDS011;7275;50.328;8.720;2023-11-19T12:41:48;6.70;;;2.10;;
14381;SDS011;7275;50.328;8.720;2023-11-19T12:44:20;8.10;;;2.22;;
14381;SDS011;7275;50.328;8.720;2023-11-19T12:49:33;7.00;;;1.95;;
14381;SDS011;7275;50.328;8.720;2023-11-19T12:52:01;5.20;;;2.40;;
14381;SDS011;7275;50.328;8.720;2023-11-19T12:54:33;5.45;;;2.30;;
14381;SDS011;7275;50.328;8.720;2023-11-19T12:57:02;4.97;;;2.20;;
14381;SDS011;7275;50.328;8.720;2023-11-19T12:59:31;6.47;;;2.40;;
14381;SDS011;7275;50.328;8.720;2023-11-19T13:01:58;5.85;;;2.45;;
14381;SDS011;7275;50.328;8.720;2023-11-19T13:04:30;6.72;;;2.10;;
14381;SDS011;7275;50.328;8.720;2023-11-19T13:06:57;5.22;;;2.10;;
14381;SDS011;7275;50.328;8.720;2023-11-19T13:09:28;6.72;;;2.58;;
14381;SDS011;7275;50.328;8.720;2023-11-19T13:11:57;6.68;;;2.35;;
14381;SDS011;7275;50.328;8.720;2023-11-19T13:14:35;5.50;;;2.10;;
14381;SDS011;7275;50.328;8.720;2023-11-19T13:17:03;5.70;;;2.25;;
14381;SDS011;7275;50.328;8.720;2023-11-19T13:19:33;5.95;;;1.98;;
14381;SDS011;7275;50.328;8.720;2023-11-19T13:22:00;5.78;;;2.10;;
14381;SDS011;7275;50.328;8.720;2023-11-19T13:24:28;5.55;;;2.00;;
14381;SDS011;7275;50.328;8.720;2023-11-19T13:26:56;5.18;;;1.83;;
14381;SDS011;7275;50.328;8.720;2023-11-19T13:29:24;5.75;;;2.10;;
14381;SDS011;7275;50.328;8.720;2023-11-19T13:31:54;4.78;;;1.80;;
14381;SDS011;7275;50.328;8.720;2023-11-19T13:34:21;5.05;;;2.20;;
14381;SDS011;7275;50.328;8.720;2023-11-19T13:36:50;7.15;;;2.22;;
14381;SDS011;7275;50.328;8.720;2023-11-19T13:39:18;4.22;;;1.95;;
14381;SDS011;7275;50.328;8.720;2023-11-19T13:41:49;3.90;;;1.67;;
14381;SDS011;7275;50.328;8.720;2023-11-19T13:44:17;5.15;;;1.83;;
14381;SDS011;7275;50.328;8.720;2023-11-19T13:46:44;3.63;;;1.65;;
14381;SDS011;7275;50.328;8.720;2023-11-19T13:49:13;5.70;;;1.80;;
14381;SDS011;7275;50.328;8.720;2023-11-19T13:51:41;9.23;;;2.08;;
14381;SDS011;7275;50.328;8.720;2023-11-19T13:54:10;5.28;;;1.88;;
14381;SDS011;7275;50.328;8.720;2023-11-19T13:56:40;4.45;;;1.85;;
14381;SDS011;7275;50.328;8.720;2023-11-19T13:59:09;5.63;;;1.90;;
14381;SDS011;7275;50.328;8.720;2023-11-19T14:01:36;4.43;;;1.80;;
14381;SDS011;7275;50.328;8.720;2023-11-19T14:04:04;7.25;;;1.92;;
14381;SDS011;7275;50.328;8.720;2023-11-19T14:06:32;7.85;;;2.00;;
14381;SDS011;7275;50.328;8.720;2023-11-19T14:09:00;6.15;;;1.83;;
14381;SDS011;7275;50.328;8.720;2023-11-19T14:11:29;6.93;;;2.00;;
14381;SDS011;7275;50.328;8.720;2023-11-19T14:13:56;6.03;;;1.90;;
14381;SDS011;7275;50.328;8.720;2023-11-19T14:16:26;5.88;;;2.05;;
14381;SDS011;7275;50.328;8.720;2023-11-19T14:18:54;2.92;;;1.60;;
14381;SDS011;7275;50.328;8.720;2023-11-19T14:21:21;5.28;;;2.00;;
14381;SDS011;7275;50.328;8.720;2023-11-19T14:23:51;5.18;;;1.83;;
14381;SDS011;7275;50.328;8.720;2023-11-19T14:26:18;5.93;;;2.08;;
14381;SDS011;7275;50.328;8.720;2023-11-19T14:28:47;4.82;;;1.60;;
14381;SDS011;7275;50.328;8.720;2023-11-19T14:31:17;4.32;;;1.77;;
14381;SDS011;7275;50.328;8.720;2023-11-19T14:33:45;5.70;;;1.73;;
14381;SDS011;7275;50.328;8.720;2023-11-19T14:36:14;5.47;;;2.10;;
14381;SDS011;7275;50.328;8.720;2023-11-19T14:38:42;6.28;;;1.67;;
14381;SDS011;7275;50.328;8.720;2023-11-19T14:41:09;5.18;;;1.90;;
14381;SDS011;7275;50.328;8.720;2023-11-19T14:43:38;4.28;;;1.77;;
14381;SDS011;7275;50.328;8.720;2023-11-19T14:46:07;4.20;;;1.70;;
14381;SDS011;7275;50.328;8.720;2023-11-19T14:48:35;5.30;;;1.58;;
14381;SDS011;7275;50.328;8.720;2023-11-19T14:51:03;5.43;;;1.60;;
14381;SDS011;7275;50.328;8.720;2023-11-19T14:53:31;7.07;;;2.23;;
14381;SDS011;7275;50.328;8.720;2023-11-19T14:55:59;4.07;;;1.67;;
14381;SDS011;7275;50.328;8.720;2023-11-19T14:58:26;4.97;;;1.87;;
14381;SDS011;7275;50.328;8.720;2023-11-19T15:00:54;4.87;;;1.80;;
14381;SDS011;7275;50.328;8.720;2023-11-19T15:03:23;6.57;;;1.90;;
14381;SDS011;7275;50.328;8.720;2023-11-19T15:05:51;4.80;;;1.60;;
14381;SDS011;7275;50.328;8.720;2023-11-19T15:08:18;4.27;;;1.57;;
14381;SDS011;7275;50.328;8.720;2023-11-19T15:10:46;5.97;;;1.83;;
14381;SDS011;7275;50.328;8.720;2023-11-19T15:13:14;3.97;;;1.77;;
14381;SDS011;7275;50.328;8.720;2023-11-19T15:15:41;5.03;;;1.87;;
14381;SDS011;7275;50.328;8.720;2023-11-19T15:18:09;6.43;;;1.80;;